sensor_id;sensor_type;location;lat;lon;timestamp;P1;durP1;ratioP1;P2;durP2;ratioP2
5616;SDS011;2830;50.656;7.568;2022-10-13T00:00:40;23.05;;;9.73;;
5616;SDS011;2830;50.656;7.568;2022-10-13T00:03:09;29.83;;;10.63;;
5616;SDS011;2830;50.656;7.568;2022-10-13T00:05:39;25.13;;;11.98;;
5616;SDS011;2830;50.656;7.568;2022-10-13T00:08:08;26.48;;;10.80;;
5616;SDS011;2830;50.656;7.568;2022-10-13T00:10:36;19.25;;;9.07;;
5616;SDS011;2830;50.656;7.568;2022-10-13T00:13:04;22.40;;;9.80;;
5616;SDS011;2830;50.656;7.568;2022-10-13T00:15:32;19.70;;;8.25;;
5616;SDS011;2830;50.656;7.568;2022-10-13T00:18:04;19.73;;;8.68;;
5616;SDS011;2830;50.656;7.568;2022-10-13T00:20:30;24.38;;;9.95;;
5616;SDS011;2830;50.656;7.568;2022-10-13T00:22:57;24.45;;;10.50;;
5616;SDS011;2830;50.656;7.568;2022-10-13T00:25:24;24.33;;;9.85;;
5616;SDS011;2830;50.656;7.568;2022-10-13T00:27:50;27.85;;;10.10;;
5616;SDS011;2830;50.656;7.568;2022-10-13T00:30:17;25.88;;;10.35;;
5616;SDS011;2830;50.656;7.568;2022-10-13T00:32:44;32.42;;;9.73;;
5616;SDS011;2830;50.656;7.568;2022-10-13T00:35:11;18.10;;;8.93;;
5616;SDS011;2830;50.656;7.568;2022-10-13T00:37:37;19.67;;;9.70;;
5616;SDS011;2830;50.656;7.568;2022-10-13T00:40:04;31.00;;;9.90;;
5616;SDS011;2830;50.656;7.568;2022-10-13T00:42:32;28.77;;;10.13;;
5616;SDS011;2830;50.656;7.568;2022-10-13T00:45:06;25.42;;;9.10;;
5616;SDS011;2830;50.656;7.568;2022-10-13T00:47:44;19.92;;;8.23;;
5616;SDS011;2830;50.656;7.568;2022-10-13T00:50:13;21.70;;;8.68;;
5616;SDS011;2830;50.656;7.568;2022-10-13T00:52:43;24.73;;;9.98;;
5616;SDS011;2830;50.656;7.568;2022-10-13T00:55:11;20.85;;;8.85;;
5616;SDS011;2830;50.656;7.568;2022-10-13T00:57:42;20.65;;;8.68;;
5616;SDS011;2830;50.656;7.568;2022-10-13T01:00:11;18.98;;;8.77;;
5616;SDS011;2830;50.656;7.568;2022-10-13T01:02:38;17.33;;;8.27;;
5616;SDS011;2830;50.656;7.568;2022-10-13T01:05:05;19.00;;;9.30;;
5616;SDS011;2830;50.656;7.568;2022-10-13T01:07:33;17.23;;;9.10;;
5616;SDS011;2830;50.656;7.568;2022-10-13T01:10:01;20.45;;;9.68;;
5616;SDS011;2830;50.656;7.568;2022-10-13T01:17:57;19.27;;;8.57;;
5616;SDS011;2830;50.656;7.568;2022-10-13T01:20:46;16.33;;;7.95;;
5616;SDS011;2830;50.656;7.568;2022-10-13T01:23:29;18.98;;;8.65;;
5616;SDS011;2830;50.656;7.568;2022-10-13T01:32:01;21.02;;;9.68;;
5616;SDS011;2830;50.656;7.568;2022-10-13T01:34:51;16.85;;;8.10;;
5616;SDS011;2830;50.656;7.568;2022-10-13T01:37:35;22.13;;;8.93;;
5616;SDS011;2830;50.656;7.568;2022-10-13T01:40:25;23.83;;;10.23;;
5616;SDS011;2830;50.656;7.568;2022-10-13T01:42:57;19.67;;;8.52;;
5616;SDS011;2830;50.656;7.568;2022-10-13T01:48:17;20.73;;;9.40;;
5616;SDS011;2830;50.656;7.568;2022-10-13T01:50:45;21.95;;;9.43;;
5616;SDS011;2830;50.656;7.568;2022-10-13T01:53:13;23.77;;;10.57;;
5616;SDS011;2830;50.656;7.568;2022-10-13T01:55:53;24.25;;;9.25;;
5616;SDS011;2830;50.656;7.568;2022-10-13T01:58:21;22.08;;;9.15;;
5616;SDS011;2830;50.656;7.568;2022-10-13T02:06:21;17.85;;;8.95;;
5616;SDS011;2830;50.656;7.568;2022-10-13T02:09:13;18.38;;;8.60;;
5616;SDS011;2830;50.656;7.568;2022-10-13T02:11:48;19.20;;;8.65;;
5616;SDS011;2830;50.656;7.568;2022-10-13T02:14:20;20.55;;;9.45;;
5616;SDS011;2830;50.656;7.568;2022-10-13T02:16:51;18.47;;;9.13;;
5616;SDS011;2830;50.656;7.568;2022-10-13T02:19:20;21.13;;;9.13;;
5616;SDS011;2830;50.656;7.568;2022-10-13T02:21:47;19.15;;;9.00;;
5616;SDS011;2830;50.656;7.568;2022-10-13T02:24:15;18.40;;;8.93;;
5616;SDS011;2830;50.656;7.568;2022-10-13T02:26:42;22.05;;;9.15;;
5616;SDS011;2830;50.656;7.568;2022-10-13T02:29:11;23.05;;;9.50;;
5616;SDS011;2830;50.656;7.568;2022-10-13T02:31:39;24.45;;;10.05;;
5616;SDS011;2830;50.656;7.568;2022-10-13T02:34:07;21.00;;;10.32;;
5616;SDS011;2830;50.656;7.568;2022-10-13T02:36:33;20.38;;;10.07;;
5616;SDS011;2830;50.656;7.568;2022-10-13T02:39:03;22.13;;;9.75;;
5616;SDS011;2830;50.656;7.568;2022-10-13T02:41:31;19.25;;;9.02;;
5616;SDS011;2830;50.656;7.568;2022-10-13T02:43:57;23.35;;;11.48;;
5616;SDS011;2830;50.656;7.568;2022-10-13T02:46:24;19.40;;;8.98;;
5616;SDS011;2830;50.656;7.568;2022-10-13T02:48:51;21.35;;;9.07;;
5616;SDS011;2830;50.656;7.568;2022-10-13T02:51:17;20.77;;;9.30;;
5616;SDS011;2830;50.656;7.568;2022-10-13T02:53:44;22.05;;;9.15;;
5616;SDS011;2830;50.656;7.568;2022-10-13T02:56:11;19.35;;;8.93;;
5616;SDS011;2830;50.656;7.568;2022-10-13T02:58:38;19.48;;;8.57;;
5616;SDS011;2830;50.656;7.568;2022-10-13T03:01:05;21.70;;;9.43;;
5616;SDS011;2830;50.656;7.568;2022-10-13T03:03:34;19.58;;;9.57;;
5616;SDS011;2830;50.656;7.568;2022-10-13T03:06:01;19.08;;;8.82;;
5616;SDS011;2830;50.656;7.568;2022-10-13T03:08:28;25.35;;;9.25;;
5616;SDS011;2830;50.656;7.568;2022-10-13T03:10:54;18.52;;;8.70;;
5616;SDS011;2830;50.656;7.568;2022-10-13T03:13:21;27.23;;;9.05;;
5616;SDS011;2830;50.656;7.568;2022-10-13T03:15:47;20.23;;;8.98;;
5616;SDS011;2830;50.656;7.568;2022-10-13T03:18:14;19.27;;;9.50;;
5616;SDS011;2830;50.656;7.568;2022-10-13T03:20:41;19.67;;;9.18;;
5616;SDS011;2830;50.656;7.568;2022-10-13T03:23:08;21.08;;;9.10;;
5616;SDS011;2830;50.656;7.568;2022-10-13T03:25:35;19.23;;;8.82;;
5616;SDS011;2830;50.656;7.568;2022-10-13T03:28:03;18.38;;;8.55;;
5616;SDS011;2830;50.656;7.568;2022-10-13T03:30:30;21.58;;;8.68;;
5616;SDS011;2830;50.656;7.568;2022-10-13T03:32:56;24.83;;;12.27;;
5616;SDS011;2830;50.656;7.568;2022-10-13T03:35:23;20.65;;;8.93;;
5616;SDS011;2830;50.656;7.568;2022-10-13T03:37:49;23.80;;;9.98;;
5616;SDS011;2830;50.656;7.568;2022-10-13T03:40:16;19.30;;;9.10;;
5616;SDS011;2830;50.656;7.568;2022-10-13T03:42:43;23.45;;;8.52;;
5616;SDS011;2830;50.656;7.568;2022-10-13T03:45:10;22.50;;;9.10;;
5616;SDS011;2830;50.656;7.568;2022-10-13T03:47:36;20.33;;;8.75;;
5616;SDS011;2830;50.656;7.568;2022-10-13T03:50:04;22.33;;;9.80;;
5616;SDS011;2830;50.656;7.568;2022-10-13T03:52:31;20.38;;;8.90;;
5616;SDS011;2830;50.656;7.568;2022-10-13T03:54:58;30.70;;;11.35;;
5616;SDS011;2830;50.656;7.568;2022-10-13T03:57:24;23.45;;;10.20;;
5616;SDS011;2830;50.656;7.568;2022-10-13T03:59:51;20.70;;;9.40;;
5616;SDS011;2830;50.656;7.568;2022-10-13T04:02:21;25.38;;;10.15;;
5616;SDS011;2830;50.656;7.568;2022-10-13T04:04:48;22.25;;;10.43;;
5616;SDS011;2830;50.656;7.568;2022-10-13T04:07:15;22.50;;;9.48;;
5616;SDS011;2830;50.656;7.568;2022-10-13T04:09:42;22.02;;;9.20;;
5616;SDS011;2830;50.656;7.568;2022-10-13T04:12:08;21.58;;;9.23;;
5616;SDS011;2830;50.656;7.568;2022-10-13T04:14:35;26.88;;;11.40;;
5616;SDS011;2830;50.656;7.568;2022-10-13T04:17:01;23.83;;;10.25;;
5616;SDS011;2830;50.656;7.568;2022-10-13T04:19:28;21.55;;;8.60;;
5616;SDS011;2830;50.656;7.568;2022-10-13T04:21:55;22.40;;;10.13;;
5616;SDS011;2830;50.656;7.568;2022-10-13T04:24:22;21.13;;;10.85;;
5616;SDS011;2830;50.656;7.568;2022-10-13T04:26:48;24.20;;;9.70;;
5616;SDS011;2830;50.656;7.568;2022-10-13T04:29:15;18.95;;;8.77;;
5616;SDS011;2830;50.656;7.568;2022-10-13T04:31:41;32.80;;;10.40;;
5616;SDS011;2830;50.656;7.568;2022-10-13T04:34:09;19.20;;;8.52;;
5616;SDS011;2830;50.656;7.568;2022-10-13T04:36:37;21.45;;;8.85;;
5616;SDS011;2830;50.656;7.568;2022-10-13T04:39:03;21.90;;;8.98;;
5616;SDS011;2830;50.656;7.568;2022-10-13T04:41:30;20.85;;;9.63;;
5616;SDS011;2830;50.656;7.568;2022-10-13T04:43:56;19.10;;;8.52;;
5616;SDS011;2830;50.656;7.568;2022-10-13T04:46:27;21.42;;;10.02;;
5616;SDS011;2830;50.656;7.568;2022-10-13T04:48:54;21.98;;;10.82;;
5616;SDS011;2830;50.656;7.568;2022-10-13T04:51:21;23.30;;;10.68;;
5616;SDS011;2830;50.656;7.568;2022-10-13T04:53:59;25.63;;;10.43;;
5616;SDS011;2830;50.656;7.568;2022-10-13T04:56:26;29.40;;;12.00;;
5616;SDS011;2830;50.656;7.568;2022-10-13T04:58:53;27.48;;;13.18;;
5616;SDS011;2830;50.656;7.568;2022-10-13T05:01:21;34.22;;;16.05;;
5616;SDS011;2830;50.656;7.568;2022-10-13T05:03:59;27.55;;;11.48;;
5616;SDS011;2830;50.656;7.568;2022-10-13T05:06:31;28.27;;;12.32;;
5616;SDS011;2830;50.656;7.568;2022-10-13T05:09:00;22.27;;;10.80;;
5616;SDS011;2830;50.656;7.568;2022-10-13T05:11:27;26.73;;;10.85;;
5616;SDS011;2830;50.656;7.568;2022-10-13T05:13:54;18.33;;;9.52;;
5616;SDS011;2830;50.656;7.568;2022-10-13T05:16:22;26.33;;;10.52;;
5616;SDS011;2830;50.656;7.568;2022-10-13T05:18:50;24.60;;;10.02;;
5616;SDS011;2830;50.656;7.568;2022-10-13T05:21:20;23.27;;;9.50;;
5616;SDS011;2830;50.656;7.568;2022-10-13T05:23:56;21.33;;;10.75;;
5616;SDS011;2830;50.656;7.568;2022-10-13T05:26:24;21.08;;;9.27;;
5616;SDS011;2830;50.656;7.568;2022-10-13T05:28:55;23.40;;;9.32;;
5616;SDS011;2830;50.656;7.568;2022-10-13T05:31:22;24.08;;;9.57;;
5616;SDS011;2830;50.656;7.568;2022-10-13T05:33:50;24.45;;;10.02;;
5616;SDS011;2830;50.656;7.568;2022-10-13T05:36:25;21.17;;;10.10;;
5616;SDS011;2830;50.656;7.568;2022-10-13T05:38:59;24.95;;;10.45;;
5616;SDS011;2830;50.656;7.568;2022-10-13T05:41:29;23.23;;;10.35;;
5616;SDS011;2830;50.656;7.568;2022-10-13T05:43:57;23.90;;;11.23;;
5616;SDS011;2830;50.656;7.568;2022-10-13T05:46:25;21.85;;;10.85;;
5616;SDS011;2830;50.656;7.568;2022-10-13T05:48:52;23.20;;;10.90;;
5616;SDS011;2830;50.656;7.568;2022-10-13T05:51:23;23.67;;;9.70;;
5616;SDS011;2830;50.656;7.568;2022-10-13T05:53:54;22.23;;;10.65;;
5616;SDS011;2830;50.656;7.568;2022-10-13T05:56:26;23.27;;;9.98;;
5616;SDS011;2830;50.656;7.568;2022-10-13T05:58:58;22.80;;;9.30;;
5616;SDS011;2830;50.656;7.568;2022-10-13T06:01:30;20.73;;;9.55;;
5616;SDS011;2830;50.656;7.568;2022-10-13T06:04:00;18.30;;;8.48;;
5616;SDS011;2830;50.656;7.568;2022-10-13T06:06:31;20.25;;;9.95;;
5616;SDS011;2830;50.656;7.568;2022-10-13T06:08:58;20.80;;;9.70;;
5616;SDS011;2830;50.656;7.568;2022-10-13T06:11:26;21.02;;;9.95;;
5616;SDS011;2830;50.656;7.568;2022-10-13T06:13:52;21.85;;;11.13;;
5616;SDS011;2830;50.656;7.568;2022-10-13T06:16:19;23.08;;;10.98;;
5616;SDS011;2830;50.656;7.568;2022-10-13T06:18:46;22.98;;;11.80;;
5616;SDS011;2830;50.656;7.568;2022-10-13T06:21:12;28.13;;;11.10;;
5616;SDS011;2830;50.656;7.568;2022-10-13T06:23:39;24.38;;;12.35;;
5616;SDS011;2830;50.656;7.568;2022-10-13T06:26:06;20.67;;;10.45;;
5616;SDS011;2830;50.656;7.568;2022-10-13T06:28:34;18.73;;;9.43;;
5616;SDS011;2830;50.656;7.568;2022-10-13T06:31:02;20.60;;;10.82;;
5616;SDS011;2830;50.656;7.568;2022-10-13T06:33:32;28.27;;;13.77;;
5616;SDS011;2830;50.656;7.568;2022-10-13T06:36:00;25.60;;;12.65;;
5616;SDS011;2830;50.656;7.568;2022-10-13T06:38:29;22.35;;;10.65;;
5616;SDS011;2830;50.656;7.568;2022-10-13T06:40:59;21.67;;;10.82;;
5616;SDS011;2830;50.656;7.568;2022-10-13T06:43:27;25.55;;;12.18;;
5616;SDS011;2830;50.656;7.568;2022-10-13T06:46:04;21.98;;;11.52;;
5616;SDS011;2830;50.656;7.568;2022-10-13T06:48:31;22.00;;;10.50;;
5616;SDS011;2830;50.656;7.568;2022-10-13T06:51:02;26.13;;;10.93;;
5616;SDS011;2830;50.656;7.568;2022-10-13T06:53:37;27.40;;;10.88;;
5616;SDS011;2830;50.656;7.568;2022-10-13T06:56:05;28.00;;;12.80;;
5616;SDS011;2830;50.656;7.568;2022-10-13T06:58:36;25.38;;;12.50;;
5616;SDS011;2830;50.656;7.568;2022-10-13T07:01:04;26.38;;;13.10;;
5616;SDS011;2830;50.656;7.568;2022-10-13T07:03:31;21.40;;;10.20;;
5616;SDS011;2830;50.656;7.568;2022-10-13T07:06:02;22.83;;;11.93;;
5616;SDS011;2830;50.656;7.568;2022-10-13T07:08:30;21.80;;;10.23;;
5616;SDS011;2830;50.656;7.568;2022-10-13T07:10:57;22.55;;;10.73;;
5616;SDS011;2830;50.656;7.568;2022-10-13T07:13:24;20.40;;;10.03;;
5616;SDS011;2830;50.656;7.568;2022-10-13T07:15:51;22.67;;;12.93;;
5616;SDS011;2830;50.656;7.568;2022-10-13T07:18:18;24.47;;;10.17;;
5616;SDS011;2830;50.656;7.568;2022-10-13T07:20:44;19.63;;;9.63;;
5616;SDS011;2830;50.656;7.568;2022-10-13T07:23:11;20.97;;;9.83;;
5616;SDS011;2830;50.656;7.568;2022-10-13T07:25:38;24.63;;;12.30;;
5616;SDS011;2830;50.656;7.568;2022-10-13T07:28:04;24.55;;;11.32;;
5616;SDS011;2830;50.656;7.568;2022-10-13T07:30:31;20.90;;;10.97;;
5616;SDS011;2830;50.656;7.568;2022-10-13T07:32:58;22.70;;;12.13;;
5616;SDS011;2830;50.656;7.568;2022-10-13T07:35:25;26.30;;;11.32;;
5616;SDS011;2830;50.656;7.568;2022-10-13T07:37:55;22.20;;;10.10;;
5616;SDS011;2830;50.656;7.568;2022-10-13T07:40:22;21.73;;;10.27;;
5616;SDS011;2830;50.656;7.568;2022-10-13T07:42:49;20.37;;;10.70;;
5616;SDS011;2830;50.656;7.568;2022-10-13T07:45:16;20.60;;;9.40;;
5616;SDS011;2830;50.656;7.568;2022-10-13T07:47:43;29.00;;;12.35;;
5616;SDS011;2830;50.656;7.568;2022-10-13T07:50:09;25.37;;;12.43;;
5616;SDS011;2830;50.656;7.568;2022-10-13T07:52:36;25.10;;;12.40;;
5616;SDS011;2830;50.656;7.568;2022-10-13T07:55:03;25.00;;;13.77;;
5616;SDS011;2830;50.656;7.568;2022-10-13T07:57:30;22.23;;;11.20;;
5616;SDS011;2830;50.656;7.568;2022-10-13T07:59:57;21.50;;;10.23;;
5616;SDS011;2830;50.656;7.568;2022-10-13T08:02:24;22.17;;;10.20;;
5616;SDS011;2830;50.656;7.568;2022-10-13T08:04:51;22.53;;;12.03;;
5616;SDS011;2830;50.656;7.568;2022-10-13T08:07:18;28.87;;;12.17;;
5616;SDS011;2830;50.656;7.568;2022-10-13T08:09:45;21.77;;;11.67;;
5616;SDS011;2830;50.656;7.568;2022-10-13T08:12:11;26.80;;;11.87;;
5616;SDS011;2830;50.656;7.568;2022-10-13T08:14:38;24.00;;;12.03;;
5616;SDS011;2830;50.656;7.568;2022-10-13T08:17:05;23.13;;;12.40;;
5616;SDS011;2830;50.656;7.568;2022-10-13T08:19:31;28.77;;;14.02;;
5616;SDS011;2830;50.656;7.568;2022-10-13T08:21:58;25.73;;;13.98;;
5616;SDS011;2830;50.656;7.568;2022-10-13T08:24:25;28.17;;;14.55;;
5616;SDS011;2830;50.656;7.568;2022-10-13T08:26:52;34.40;;;19.57;;
5616;SDS011;2830;50.656;7.568;2022-10-13T08:29:19;33.30;;;18.70;;
5616;SDS011;2830;50.656;7.568;2022-10-13T08:31:49;34.47;;;15.90;;
5616;SDS011;2830;50.656;7.568;2022-10-13T08:34:20;34.83;;;17.23;;
5616;SDS011;2830;50.656;7.568;2022-10-13T08:36:48;29.70;;;15.17;;
5616;SDS011;2830;50.656;7.568;2022-10-13T08:39:18;28.63;;;15.07;;
5616;SDS011;2830;50.656;7.568;2022-10-13T08:41:44;28.50;;;15.77;;
5616;SDS011;2830;50.656;7.568;2022-10-13T08:49:46;34.47;;;18.10;;
5616;SDS011;2830;50.656;7.568;2022-10-13T08:52:21;32.47;;;17.23;;
5616;SDS011;2830;50.656;7.568;2022-10-13T08:54:49;34.67;;;16.20;;
5616;SDS011;2830;50.656;7.568;2022-10-13T08:57:18;31.63;;;14.27;;
5616;SDS011;2830;50.656;7.568;2022-10-13T08:59:46;35.45;;;17.30;;
5616;SDS011;2830;50.656;7.568;2022-10-13T09:02:24;30.00;;;15.13;;
5616;SDS011;2830;50.656;7.568;2022-10-13T09:04:56;31.10;;;13.40;;
5616;SDS011;2830;50.656;7.568;2022-10-13T09:07:33;26.13;;;11.67;;
5616;SDS011;2830;50.656;7.568;2022-10-13T09:10:02;22.60;;;11.20;;
5616;SDS011;2830;50.656;7.568;2022-10-13T09:12:29;34.67;;;12.70;;
5616;SDS011;2830;50.656;7.568;2022-10-13T09:15:05;24.77;;;10.87;;
5616;SDS011;2830;50.656;7.568;2022-10-13T09:17:35;24.40;;;10.73;;
5616;SDS011;2830;50.656;7.568;2022-10-13T09:20:22;21.83;;;10.20;;
5616;SDS011;2830;50.656;7.568;2022-10-13T09:22:59;22.17;;;9.50;;
5616;SDS011;2830;50.656;7.568;2022-10-13T09:25:26;24.60;;;10.30;;
5616;SDS011;2830;50.656;7.568;2022-10-13T09:27:54;19.60;;;8.50;;
5616;SDS011;2830;50.656;7.568;2022-10-13T09:30:36;26.50;;;9.02;;
5616;SDS011;2830;50.656;7.568;2022-10-13T09:35:34;23.50;;;10.13;;
5616;SDS011;2830;50.656;7.568;2022-10-13T09:40:28;24.50;;;9.33;;
5616;SDS011;2830;50.656;7.568;2022-10-13T09:42:59;29.27;;;8.97;;
5616;SDS011;2830;50.656;7.568;2022-10-13T09:45:27;27.37;;;9.77;;
5616;SDS011;2830;50.656;7.568;2022-10-13T09:47:58;26.20;;;9.53;;
5616;SDS011;2830;50.656;7.568;2022-10-13T09:50:29;29.10;;;9.50;;
5616;SDS011;2830;50.656;7.568;2022-10-13T09:53:08;23.07;;;8.93;;
5616;SDS011;2830;50.656;7.568;2022-10-13T09:55:42;23.03;;;9.07;;
5616;SDS011;2830;50.656;7.568;2022-10-13T09:58:27;24.50;;;8.80;;
5616;SDS011;2830;50.656;7.568;2022-10-13T10:00:56;26.67;;;9.27;;
5616;SDS011;2830;50.656;7.568;2022-10-13T10:03:28;21.77;;;8.77;;
5616;SDS011;2830;50.656;7.568;2022-10-13T10:06:00;26.60;;;9.87;;
5616;SDS011;2830;50.656;7.568;2022-10-13T10:08:43;20.60;;;8.63;;
5616;SDS011;2830;50.656;7.568;2022-10-13T10:11:36;22.47;;;8.83;;
5616;SDS011;2830;50.656;7.568;2022-10-13T10:17:16;26.00;;;9.80;;
5616;SDS011;2830;50.656;7.568;2022-10-13T10:20:03;24.93;;;11.03;;
5616;SDS011;2830;50.656;7.568;2022-10-13T10:25:22;23.43;;;9.07;;
5616;SDS011;2830;50.656;7.568;2022-10-13T10:30:47;25.70;;;9.03;;
5616;SDS011;2830;50.656;7.568;2022-10-13T10:33:32;27.97;;;9.37;;
5616;SDS011;2830;50.656;7.568;2022-10-13T10:36:09;22.13;;;8.70;;
5616;SDS011;2830;50.656;7.568;2022-10-13T10:38:49;23.77;;;10.10;;
5616;SDS011;2830;50.656;7.568;2022-10-13T10:41:30;20.50;;;8.80;;
5616;SDS011;2830;50.656;7.568;2022-10-13T10:44:12;29.67;;;13.03;;
5616;SDS011;2830;50.656;7.568;2022-10-13T10:46:46;34.83;;;17.67;;
5616;SDS011;2830;50.656;7.568;2022-10-13T10:49:19;24.70;;;10.17;;
5616;SDS011;2830;50.656;7.568;2022-10-13T10:51:52;19.93;;;8.80;;
5616;SDS011;2830;50.656;7.568;2022-10-13T10:57:12;22.17;;;8.23;;
5616;SDS011;2830;50.656;7.568;2022-10-13T11:02:42;26.03;;;8.73;;
5616;SDS011;2830;50.656;7.568;2022-10-13T11:05:14;22.63;;;8.70;;
5616;SDS011;2830;50.656;7.568;2022-10-13T11:15:22;20.70;;;7.53;;
5616;SDS011;2830;50.656;7.568;2022-10-13T11:17:56;21.63;;;7.13;;
5616;SDS011;2830;50.656;7.568;2022-10-13T11:30:52;15.60;;;6.30;;
5616;SDS011;2830;50.656;7.568;2022-10-13T11:41:51;22.27;;;8.02;;
5616;SDS011;2830;50.656;7.568;2022-10-13T11:44:34;17.93;;;7.43;;
5616;SDS011;2830;50.656;7.568;2022-10-13T11:50:16;19.87;;;7.40;;
5616;SDS011;2830;50.656;7.568;2022-10-13T11:53:12;17.13;;;5.95;;
5616;SDS011;2830;50.656;7.568;2022-10-13T11:56:16;17.97;;;7.10;;
5616;SDS011;2830;50.656;7.568;2022-10-13T11:58:47;20.85;;;6.93;;
5616;SDS011;2830;50.656;7.568;2022-10-13T12:01:15;25.60;;;7.00;;
5616;SDS011;2830;50.656;7.568;2022-10-13T12:03:43;18.93;;;7.87;;
5616;SDS011;2830;50.656;7.568;2022-10-13T12:06:30;19.52;;;6.75;;
5616;SDS011;2830;50.656;7.568;2022-10-13T12:09:12;17.02;;;6.82;;
5616;SDS011;2830;50.656;7.568;2022-10-13T12:11:43;18.23;;;7.93;;
5616;SDS011;2830;50.656;7.568;2022-10-13T12:14:20;18.67;;;7.00;;
5616;SDS011;2830;50.656;7.568;2022-10-13T12:16:54;18.60;;;6.28;;
5616;SDS011;2830;50.656;7.568;2022-10-13T12:19:28;21.15;;;6.15;;
5616;SDS011;2830;50.656;7.568;2022-10-13T12:21:57;16.70;;;5.60;;
5616;SDS011;2830;50.656;7.568;2022-10-13T12:24:27;16.30;;;5.87;;
5616;SDS011;2830;50.656;7.568;2022-10-13T12:26:55;15.97;;;6.23;;
5616;SDS011;2830;50.656;7.568;2022-10-13T12:29:26;17.10;;;6.37;;
5616;SDS011;2830;50.656;7.568;2022-10-13T12:32:00;18.20;;;5.80;;
5616;SDS011;2830;50.656;7.568;2022-10-13T12:34:27;14.50;;;5.10;;
5616;SDS011;2830;50.656;7.568;2022-10-13T12:37:04;17.57;;;5.87;;
5616;SDS011;2830;50.656;7.568;2022-10-13T12:39:39;17.10;;;5.60;;
5616;SDS011;2830;50.656;7.568;2022-10-13T12:42:06;18.05;;;5.45;;
5616;SDS011;2830;50.656;7.568;2022-10-13T12:44:38;23.60;;;5.87;;
5616;SDS011;2830;50.656;7.568;2022-10-13T12:47:05;18.30;;;5.40;;
5616;SDS011;2830;50.656;7.568;2022-10-13T12:50:27;16.40;;;5.60;;
5616;SDS011;2830;50.656;7.568;2022-10-13T12:55:34;16.53;;;6.70;;
5616;SDS011;2830;50.656;7.568;2022-10-13T12:58:17;23.15;;;7.38;;
5616;SDS011;2830;50.656;7.568;2022-10-13T13:03:52;19.13;;;6.10;;
5616;SDS011;2830;50.656;7.568;2022-10-13T13:06:21;20.47;;;5.80;;
5616;SDS011;2830;50.656;7.568;2022-10-13T13:11:37;22.90;;;5.80;;
5616;SDS011;2830;50.656;7.568;2022-10-13T13:14:30;28.23;;;6.93;;
5616;SDS011;2830;50.656;7.568;2022-10-13T13:19:46;20.23;;;6.40;;
5616;SDS011;2830;50.656;7.568;2022-10-13T13:22:14;18.52;;;6.38;;
5616;SDS011;2830;50.656;7.568;2022-10-13T13:24:41;23.35;;;5.25;;
5616;SDS011;2830;50.656;7.568;2022-10-13T13:27:31;20.57;;;6.90;;
5616;SDS011;2830;50.656;7.568;2022-10-13T13:30:01;20.93;;;6.53;;
5616;SDS011;2830;50.656;7.568;2022-10-13T13:32:28;21.03;;;6.80;;
5616;SDS011;2830;50.656;7.568;2022-10-13T13:34:56;17.23;;;6.30;;
5616;SDS011;2830;50.656;7.568;2022-10-13T13:37:27;20.47;;;7.00;;
5616;SDS011;2830;50.656;7.568;2022-10-13T13:39:57;25.40;;;7.83;;
5616;SDS011;2830;50.656;7.568;2022-10-13T13:42:26;22.00;;;7.30;;
5616;SDS011;2830;50.656;7.568;2022-10-13T13:44:53;24.97;;;7.40;;
5616;SDS011;2830;50.656;7.568;2022-10-13T13:47:21;18.60;;;6.57;;
5616;SDS011;2830;50.656;7.568;2022-10-13T13:49:50;18.93;;;6.90;;
5616;SDS011;2830;50.656;7.568;2022-10-13T13:52:18;17.97;;;6.63;;
5616;SDS011;2830;50.656;7.568;2022-10-13T13:54:47;19.13;;;7.80;;
5616;SDS011;2830;50.656;7.568;2022-10-13T13:57:15;27.63;;;8.13;;
5616;SDS011;2830;50.656;7.568;2022-10-13T13:59:43;19.20;;;7.30;;
5616;SDS011;2830;50.656;7.568;2022-10-13T14:02:18;17.33;;;7.40;;
5616;SDS011;2830;50.656;7.568;2022-10-13T14:04:46;21.03;;;6.33;;
5616;SDS011;2830;50.656;7.568;2022-10-13T14:07:13;24.83;;;8.37;;
5616;SDS011;2830;50.656;7.568;2022-10-13T14:09:39;21.17;;;8.00;;
5616;SDS011;2830;50.656;7.568;2022-10-13T14:12:06;20.40;;;7.33;;
5616;SDS011;2830;50.656;7.568;2022-10-13T14:14:33;21.80;;;7.40;;
5616;SDS011;2830;50.656;7.568;2022-10-13T14:17:00;18.08;;;7.10;;
5616;SDS011;2830;50.656;7.568;2022-10-13T14:19:29;20.30;;;7.23;;
5616;SDS011;2830;50.656;7.568;2022-10-13T14:21:56;19.03;;;6.60;;
5616;SDS011;2830;50.656;7.568;2022-10-13T14:24:23;27.90;;;9.40;;
5616;SDS011;2830;50.656;7.568;2022-10-13T14:26:49;24.67;;;7.80;;
5616;SDS011;2830;50.656;7.568;2022-10-13T14:29:16;20.80;;;6.40;;
5616;SDS011;2830;50.656;7.568;2022-10-13T14:31:43;21.70;;;7.65;;
5616;SDS011;2830;50.656;7.568;2022-10-13T14:34:09;23.10;;;7.80;;
5616;SDS011;2830;50.656;7.568;2022-10-13T14:36:36;17.73;;;6.65;;
5616;SDS011;2830;50.656;7.568;2022-10-13T14:39:03;22.63;;;8.47;;
5616;SDS011;2830;50.656;7.568;2022-10-13T14:41:30;21.10;;;8.60;;
5616;SDS011;2830;50.656;7.568;2022-10-13T14:43:56;25.73;;;10.67;;
5616;SDS011;2830;50.656;7.568;2022-10-13T14:46:23;21.00;;;8.77;;
5616;SDS011;2830;50.656;7.568;2022-10-13T14:48:50;28.33;;;9.10;;
5616;SDS011;2830;50.656;7.568;2022-10-13T14:51:17;22.65;;;7.93;;
5616;SDS011;2830;50.656;7.568;2022-10-13T14:53:44;22.43;;;8.83;;
5616;SDS011;2830;50.656;7.568;2022-10-13T14:56:18;20.98;;;8.70;;
5616;SDS011;2830;50.656;7.568;2022-10-13T14:58:50;23.63;;;8.90;;
5616;SDS011;2830;50.656;7.568;2022-10-13T15:01:22;18.13;;;8.20;;
5616;SDS011;2830;50.656;7.568;2022-10-13T15:03:49;20.00;;;8.50;;
5616;SDS011;2830;50.656;7.568;2022-10-13T15:06:20;20.30;;;8.75;;
5616;SDS011;2830;50.656;7.568;2022-10-13T15:08:49;25.43;;;9.10;;
5616;SDS011;2830;50.656;7.568;2022-10-13T15:11:16;25.17;;;9.90;;
5616;SDS011;2830;50.656;7.568;2022-10-13T15:13:44;27.00;;;10.10;;
5616;SDS011;2830;50.656;7.568;2022-10-13T15:16:14;23.13;;;9.80;;
5616;SDS011;2830;50.656;7.568;2022-10-13T15:18:42;23.70;;;9.70;;
5616;SDS011;2830;50.656;7.568;2022-10-13T15:21:09;20.17;;;9.30;;
5616;SDS011;2830;50.656;7.568;2022-10-13T15:23:37;23.83;;;11.10;;
5616;SDS011;2830;50.656;7.568;2022-10-13T15:26:04;26.47;;;11.63;;
5616;SDS011;2830;50.656;7.568;2022-10-13T15:28:36;18.23;;;9.10;;
5616;SDS011;2830;50.656;7.568;2022-10-13T15:31:04;21.63;;;8.73;;
5616;SDS011;2830;50.656;7.568;2022-10-13T15:33:31;22.33;;;9.13;;
5616;SDS011;2830;50.656;7.568;2022-10-13T15:35:58;46.90;;;11.50;;
5616;SDS011;2830;50.656;7.568;2022-10-13T15:38:25;22.30;;;10.17;;
5616;SDS011;2830;50.656;7.568;2022-10-13T15:40:57;26.17;;;9.60;;
5616;SDS011;2830;50.656;7.568;2022-10-13T15:43:27;21.10;;;10.00;;
5616;SDS011;2830;50.656;7.568;2022-10-13T15:45:55;28.67;;;8.90;;
5616;SDS011;2830;50.656;7.568;2022-10-13T15:48:25;24.70;;;10.50;;
5616;SDS011;2830;50.656;7.568;2022-10-13T15:50:51;20.87;;;9.77;;
5616;SDS011;2830;50.656;7.568;2022-10-13T15:53:18;28.43;;;9.80;;
5616;SDS011;2830;50.656;7.568;2022-10-13T15:55:46;23.37;;;11.40;;
5616;SDS011;2830;50.656;7.568;2022-10-13T15:58:13;22.57;;;10.27;;
5616;SDS011;2830;50.656;7.568;2022-10-13T16:00:40;25.57;;;11.27;;
5616;SDS011;2830;50.656;7.568;2022-10-13T16:03:12;26.13;;;10.90;;
5616;SDS011;2830;50.656;7.568;2022-10-13T16:05:40;27.47;;;11.27;;
5616;SDS011;2830;50.656;7.568;2022-10-13T16:08:11;22.50;;;9.57;;
5616;SDS011;2830;50.656;7.568;2022-10-13T16:10:39;24.83;;;10.20;;
5616;SDS011;2830;50.656;7.568;2022-10-13T16:13:07;24.13;;;10.30;;
5616;SDS011;2830;50.656;7.568;2022-10-13T16:15:37;24.07;;;9.83;;
5616;SDS011;2830;50.656;7.568;2022-10-13T16:18:04;23.67;;;10.47;;
5616;SDS011;2830;50.656;7.568;2022-10-13T16:20:31;22.90;;;10.03;;
5616;SDS011;2830;50.656;7.568;2022-10-13T16:23:00;19.23;;;8.70;;
5616;SDS011;2830;50.656;7.568;2022-10-13T16:25:27;21.77;;;9.03;;
5616;SDS011;2830;50.656;7.568;2022-10-13T16:27:55;25.93;;;9.60;;
5616;SDS011;2830;50.656;7.568;2022-10-13T16:30:21;24.00;;;10.00;;
5616;SDS011;2830;50.656;7.568;2022-10-13T16:32:48;28.20;;;11.23;;
5616;SDS011;2830;50.656;7.568;2022-10-13T16:35:15;25.47;;;11.73;;
5616;SDS011;2830;50.656;7.568;2022-10-13T16:37:42;22.17;;;11.17;;